Time,TemperatureF,DewpointF,PressureIn,WindDirection,WindDirectionDegrees,WindSpeedMPH,WindSpeedGustMPH,Humidity,HourlyPrecipIn,Conditions,Clouds,dailyrainin,SoftwareType,DateUTC
2013-01-31 00:03:00,23.0,20.0,29.65,West,275,21.0,31.0,87,0.00,,,0.66,,2013-01-31 05:03:00,
2013-01-31 00:11:00,23.0,20.0,29.65,West,275,21.0,31.0,87,0.00,,,0.66,,2013-01-31 05:11:00,
2013-01-31 00:22:00,22.0,19.0,29.66,WNW,296,21.0,31.0,87,0.00,,,0.66,,2013-01-31 05:22:00,
2013-01-31 00:32:00,22.0,19.0,29.66,WNW,296,21.0,31.0,87,0.00,,,0.66,,2013-01-31 05:32:00,
2013-01-31 00:41:00,22.0,18.0,29.67,WNW,291,20.0,30.0,86,0.00,,,0.38,,2013-01-31 05:41:00,
2013-01-31 00:52:00,22.0,18.0,29.67,WNW,291,20.0,30.0,86,0.00,,,0.38,,2013-01-31 05:52:00,
2013-01-31 01:01:00,22.0,18.0,29.67,WNW,291,20.0,30.0,86,0.00,,,0.38,,2013-01-31 06:01:00,
2013-01-31 01:10:00,22.0,18.0,29.67,WNW,291,20.0,30.0,86,0.00,,,0.38,,2013-01-31 06:10:00,
2013-01-31 09:02:00,22.0,20.0,29.85,WNW,296,15.0,21.0,90,0.00,,,0.03,,2013-01-31 14:02:00,
2013-01-31 09:11:00,22.0,20.0,29.85,WNW,296,15.0,21.0,90,0.00,,,0.03,,2013-01-31 14:11:00,
2013-01-31 09:22:00,22.0,19.0,29.86,WNW,284,16.0,25.0,88,0.00,,,0.03,,2013-01-31 14:22:00,
2013-01-31 09:32:00,22.0,18.0,29.87,West,269,17.0,26.0,84,0.00,,,0.03,,2013-01-31 14:32:00,
2013-01-31 09:42:00,22.0,18.0,29.87,West,269,17.0,26.0,84,0.00,,,0.03,,2013-01-31 14:42:00,
2013-01-31 09:52:00,22.0,19.0,29.88,WNW,296,14.0,23.0,87,0.00,,,0.03,,2013-01-31 14:52:00,
2013-01-31 10:03:00,21.0,17.0,29.89,WNW,294,19.0,24.0,85,0.00,,,0.03,,2013-01-31 15:03:00,
2013-01-31 10:12:00,21.0,17.0,29.89,WNW,294,19.0,24.0,85,0.00,,,0.03,,2013-01-31 15:12:00,
2013-01-31 10:22:00,21.0,17.0,29.89,WNW,294,19.0,24.0,85,0.00,,,0.03,,2013-01-31 15:22:00,
2013-01-31 10:32:00,21.0,17.0,29.89,WNW,294,19.0,24.0,85,0.00,,,0.03,,2013-01-31 15:32:00,
2013-01-31 10:42:00,21.0,17.0,29.89,WNW,294,19.0,24.0,85,0.00,,,0.03,,2013-01-31 15:42:00,
2013-01-31 11:33:00,21.0,15.0,29.92,WNW,296,17.0,26.0,78,0.00,,,0.03,,2013-01-31 16:33:00,
2013-01-31 11:42:00,21.0,15.0,29.92,WNW,296,17.0,26.0,78,0.00,,,0.03,,2013-01-31 16:42:00,
2013-01-31 11:52:00,23.0,17.0,29.93,West,281,19.0,25.0,77,0.00,,,0.03,,2013-01-31 16:52:00,
2013-01-31 12:02:00,22.0,15.0,29.93,West,273,18.0,26.0,75,0.00,,,0.03,,2013-01-31 17:02:00,
2013-01-31 12:12:00,22.0,15.0,29.93,West,273,18.0,26.0,75,0.00,,,0.03,,2013-01-31 17:12:00,
2013-01-31 12:23:00,22.0,16.0,29.94,WNW,283,19.0,26.0,76,0.00,,,0.03,,2013-01-31 17:23:00,
2013-01-31 12:32:00,21.0,15.0,29.95,WNW,285,14.0,24.0,78,0.00,,,0.03,,2013-01-31 17:32:00,
2013-01-31 12:43:00,21.0,15.0,29.95,WNW,285,14.0,24.0,78,0.00,,,0.03,,2013-01-31 17:43:00,
2013-01-31 12:53:00,21.0,14.0,29.94,WSW,244,19.0,25.0,75,0.00,,,0.03,,2013-01-31 17:53:00,
2013-01-31 13:02:00,21.0,15.0,29.94,West,262,16.0,26.0,78,0.00,,,0.03,,2013-01-31 18:02:00,
2013-01-31 13:12:00,21.0,16.0,29.95,WSW,255,16.0,25.0,80,0.00,,,0.02,,2013-01-31 18:12:00,
2013-01-31 13:22:00,21.0,16.0,29.95,WSW,255,16.0,25.0,80,0.00,,,0.02,,2013-01-31 18:22:00,
2013-01-31 13:32:00,22.0,16.0,29.95,West,267,17.0,22.0,79,0.00,,,0.02,,2013-01-31 18:32:00,
2013-01-31 13:43:00,22.0,16.0,29.95,West,267,17.0,22.0,79,0.00,,,0.02,,2013-01-31 18:43:00,
2013-01-31 13:52:00,22.0,17.0,29.94,WNW,287,16.0,27.0,80,0.00,,,0.02,,2013-01-31 18:52:00,
2013-01-31 14:02:00,23.0,17.0,29.95,WNW,290,20.0,26.0,77,0.00,,,0.02,,2013-01-31 19:02:00,
2013-01-31 14:12:00,23.0,17.0,29.95,WNW,290,20.0,26.0,77,0.00,,,0.02,,2013-01-31 19:12:00,
2013-01-31 14:22:00,22.0,16.0,29.94,WNW,296,17.0,26.0,78,0.00,,,0.01,,2013-01-31 19:22:00,
2013-01-31 14:32:00,21.0,16.0,29.95,WNW,302,16.0,23.0,79,0.00,,,0.01,,2013-01-31 19:32:00,
2013-01-31 14:42:00,21.0,16.0,29.95,WNW,302,16.0,23.0,79,0.00,,,0.01,,2013-01-31 19:42:00,
2013-01-31 14:52:00,21.0,16.0,29.95,West,273,16.0,21.0,82,0.00,,,0.01,,2013-01-31 19:52:00,
2013-01-31 15:02:00,21.0,17.0,29.95,WNW,283,13.0,20.0,83,0.00,,,0.01,,2013-01-31 20:02:00,
2013-01-31 15:11:00,21.0,17.0,29.95,WNW,283,13.0,20.0,83,0.00,,,0.01,,2013-01-31 20:11:00,
2013-01-31 15:22:00,21.0,17.0,29.95,WNW,290,15.0,20.0,84,0.00,,,0.01,,2013-01-31 20:22:00,
2013-01-31 15:31:00,21.0,17.0,29.95,West,281,14.0,20.0,84,0.00,,,0.01,,2013-01-31 20:31:00,
2013-01-31 15:42:00,21.0,17.0,29.95,West,281,14.0,20.0,84,0.00,,,0.01,,2013-01-31 20:42:00,
2013-01-31 15:52:00,20.0,15.0,29.96,West,279,17.0,22.0,81,0.00,,,0.01,,2013-01-31 20:52:00,
2013-01-31 16:02:00,19.0,13.0,29.96,WNW,295,17.0,24.0,78,0.00,,,0.01,,2013-01-31 21:02:00,
2013-01-31 16:12:00,19.0,13.0,29.96,WNW,295,17.0,24.0,78,0.00,,,0.01,,2013-01-31 21:12:00,
2013-01-31 16:22:00,19.0,13.0,29.96,WNW,292,17.0,24.0,77,0.00,,,0.01,,2013-01-31 21:22:00,
2013-01-31 16:32:00,18.0,12.0,29.97,WNW,302,19.0,25.0,78,0.00,,,0.01,,2013-01-31 21:32:00,
2013-01-31 16:42:00,18.0,12.0,29.97,WNW,302,19.0,25.0,78,0.00,,,0.01,,2013-01-31 21:42:00,
2013-01-31 16:52:00,17.0,12.0,29.98,WNW,300,17.0,24.0,79,0.00,,,0.01,,2013-01-31 21:52:00,
2013-01-31 17:02:00,17.0,12.0,29.99,WNW,284,17.0,21.0,79,0.00,,,0.01,,2013-01-31 22:02:00,
2013-01-31 17:11:00,17.0,12.0,29.99,WNW,284,17.0,21.0,79,0.00,,,0.01,,2013-01-31 22:11:00,
2013-01-31 17:22:00,17.0,12.0,30.00,WNW,288,17.0,24.0,80,0.00,,,0.01,,2013-01-31 22:22:00,
2013-01-31 17:32:00,16.0,10.0,30.01,WNW,302,0.0,0.0,76,0.00,,,0.01,,2013-01-31 22:32:00,
2013-01-31 17:42:00,16.0,10.0,30.01,WNW,302,0.0,0.0,76,0.00,,,0.01,,2013-01-31 22:42:00,
2013-01-31 17:52:00,16.0,10.0,30.01,West,281,0.0,0.0,77,0.00,,,0.01,,2013-01-31 22:52:00,
2013-01-31 18:02:00,16.0,11.0,30.02,WNW,297,0.0,0.0,80,0.00,,,0.01,,2013-01-31 23:02:00,
2013-01-31 18:12:00,16.0,11.0,30.02,WNW,297,0.0,0.0,80,0.00,,,0.01,,2013-01-31 23:12:00,
2013-01-31 18:22:00,15.0,10.0,30.03,WNW,286,0.0,0.0,80,0.00,,,0.01,,2013-01-31 23:22:00,
2013-01-31 18:32:00,15.0,9.0,30.03,WNW,296,0.0,0.0,78,0.00,,,0.01,,2013-01-31 23:32:00,
2013-01-31 18:42:00,15.0,9.0,30.03,WNW,296,0.0,0.0,78,0.00,,,0.01,,2013-01-31 23:42:00,
2013-01-31 18:52:00,14.0,9.0,30.04,West,265,0.0,0.0,81,0.00,,,0.01,,2013-01-31 23:52:00,
2013-01-31 19:01:00,14.0,10.0,30.05,NW,309,0.0,0.0,82,0.00,,,0.01,,2013-02-01 00:01:00,
2013-01-31 19:11:00,14.0,10.0,30.05,NW,309,0.0,0.0,82,0.00,,,0.01,,2013-02-01 00:11:00,
2013-01-31 19:22:00,13.0,8.0,30.06,NW,313,0.0,0.0,79,0.00,,,0.01,,2013-02-01 00:22:00,
2013-01-31 19:31:00,13.0,9.0,30.07,WNW,294,0.0,0.0,83,0.00,,,0.01,,2013-02-01 00:31:00,
2013-01-31 19:42:00,13.0,9.0,30.07,WNW,294,0.0,0.0,83,0.00,,,0.01,,2013-02-01 00:42:00,
2013-01-31 19:52:00,13.0,8.0,30.08,West,280,0.0,0.0,79,0.00,,,0.01,,2013-02-01 00:52:00,
2013-01-31 20:01:00,12.0,6.0,30.09,NW,304,0.0,0.0,77,0.00,,,0.01,,2013-02-01 01:01:00,
2013-01-31 20:11:00,12.0,7.0,30.09,WNW,299,0.0,0.0,79,0.00,,,0.01,,2013-02-01 01:11:00,
2013-01-31 20:21:00,12.0,7.0,30.09,WNW,299,0.0,0.0,79,0.00,,,0.01,,2013-02-01 01:21:00,
2013-01-31 20:32:00,11.0,6.0,30.10,WNW,288,0.0,0.0,81,0.00,,,0.01,,2013-02-01 01:32:00,
2013-01-31 20:42:00,11.0,6.0,30.10,WNW,288,0.0,0.0,81,0.00,,,0.01,,2013-02-01 01:42:00,
2013-01-31 20:52:00,11.0,7.0,30.11,WNW,292,0.0,0.0,83,0.00,,,0.01,,2013-02-01 01:52:00,
2013-01-31 21:01:00,11.0,6.0,30.12,NW,311,19.0,27.0,80,0.00,,,0.01,,2013-02-01 02:01:00,
2013-01-31 21:11:00,11.0,6.0,30.12,NW,311,19.0,27.0,80,0.00,,,0.01,,2013-02-01 02:11:00,
2013-01-31 21:21:00,10.0,6.0,30.12,WNW,298,19.0,26.0,84,0.00,,,0.01,,2013-02-01 02:21:00,
2013-01-31 21:31:00,10.0,5.0,30.13,WNW,301,0.0,0.0,81,0.00,,,0.01,,2013-02-01 02:31:00,
2013-01-31 21:42:00,10.0,5.0,30.13,WNW,301,0.0,0.0,81,0.00,,,0.01,,2013-02-01 02:42:00,
2013-01-31 21:52:00,9.0,4.0,30.14,WNW,284,0.0,0.0,81,0.00,,,0.01,,2013-02-01 02:52:00,
2013-01-31 22:01:00,9.0,4.0,30.15,WNW,301,0.0,0.0,81,0.00,,,0.01,,2013-02-01 03:01:00,
2013-01-31 22:12:00,9.0,4.0,30.15,WNW,301,0.0,0.0,81,0.00,,,0.01,,2013-02-01 03:12:00,
2013-01-31 22:21:00,9.0,4.0,30.15,WNW,293,0.0,0.0,81,0.00,,,0.00,,2013-02-01 03:21:00,
2013-01-31 22:32:00,9.0,5.0,30.16,WNW,299,0.0,0.0,82,0.00,,,0.00,,2013-02-01 03:32:00,
2013-01-31 22:42:00,9.0,5.0,30.16,WNW,299,0.0,0.0,82,0.00,,,0.00,,2013-02-01 03:42:00,
2013-01-31 22:51:00,9.0,5.0,30.16,WNW,299,0.0,0.0,82,0.00,,,0.00,,2013-02-01 03:51:00,
2013-01-31 23:02:00,8.0,4.0,30.17,NW,308,0.0,0.0,83,0.00,,,0.00,,2013-02-01 04:02:00,
2013-01-31 23:11:00,8.0,4.0,30.17,NW,308,0.0,0.0,83,0.00,,,0.00,,2013-02-01 04:11:00,
2013-01-31 23:21:00,8.0,4.0,30.18,WNW,299,0.0,0.0,84,0.00,,,0.00,,2013-02-01 04:21:00,
2013-01-31 23:32:00,8.0,3.0,30.19,NW,313,0.0,0.0,81,0.00,,,0.00,,2013-02-01 04:32:00,
2013-01-31 23:41:00,8.0,3.0,30.19,NW,313,0.0,0.0,81,0.00,,,0.00,,2013-02-01 04:41:00,
2013-01-31 23:51:00,8.0,4.0,30.20,NW,317,0.0,0.0,82,0.00,,,0.00,,2013-02-01 04:51:00,